sensor_id;sensor_type;location;lat;lon;timestamp;temperature;humidity
14723;DHT22;7452;55.594;12.986;2022-09-27T00:00:58;12.10;99.90
14723;DHT22;7452;55.594;12.986;2022-09-27T00:03:25;12.10;99.90
14723;DHT22;7452;55.594;12.986;2022-09-27T00:06:04;12.10;99.90
14723;DHT22;7452;55.594;12.986;2022-09-27T00:08:33;12.10;99.90
14723;DHT22;7452;55.594;12.986;2022-09-27T00:11:00;12.10;99.90
14723;DHT22;7452;55.594;12.986;2022-09-27T00:13:28;12.10;99.90
14723;DHT22;7452;55.594;12.986;2022-09-27T00:15:56;12.10;99.90
14723;DHT22;7452;55.594;12.986;2022-09-27T00:18:24;12.10;99.90
14723;DHT22;7452;55.594;12.986;2022-09-27T00:20:52;12.10;99.90
14723;DHT22;7452;55.594;12.986;2022-09-27T00:23:20;12.00;99.90
14723;DHT22;7452;55.594;12.986;2022-09-27T00:25:54;11.90;99.90
14723;DHT22;7452;55.594;12.986;2022-09-27T00:28:21;11.90;99.90
14723;DHT22;7452;55.594;12.986;2022-09-27T00:30:49;11.80;99.90
14723;DHT22;7452;55.594;12.986;2022-09-27T00:33:16;11.80;99.90
14723;DHT22;7452;55.594;12.986;2022-09-27T00:35:43;11.70;99.90
14723;DHT22;7452;55.594;12.986;2022-09-27T00:38:10;11.60;99.90
14723;DHT22;7452;55.594;12.986;2022-09-27T00:40:39;11.60;99.90
14723;DHT22;7452;55.594;12.986;2022-09-27T00:43:14;11.60;99.90
14723;DHT22;7452;55.594;12.986;2022-09-27T00:45:43;11.60;99.90
14723;DHT22;7452;55.594;12.986;2022-09-27T00:48:15;11.50;99.90
14723;DHT22;7452;55.594;12.986;2022-09-27T00:50:45;11.50;99.90
14723;DHT22;7452;55.594;12.986;2022-09-27T00:53:15;11.60;99.90
14723;DHT22;7452;55.594;12.986;2022-09-27T00:55:48;11.60;99.90
14723;DHT22;7452;55.594;12.986;2022-09-27T00:58:18;11.50;99.90
14723;DHT22;7452;55.594;12.986;2022-09-27T01:00:51;11.60;99.90
14723;DHT22;7452;55.594;12.986;2022-09-27T01:03:22;11.50;99.90
14723;DHT22;7452;55.594;12.986;2022-09-27T01:05:51;11.50;99.90
14723;DHT22;7452;55.594;12.986;2022-09-27T01:08:19;11.50;99.90
14723;DHT22;7452;55.594;12.986;2022-09-27T01:11:03;11.50;99.90
14723;DHT22;7452;55.594;12.986;2022-09-27T01:13:39;11.50;99.90
14723;DHT22;7452;55.594;12.986;2022-09-27T01:16:16;11.50;99.90
14723;DHT22;7452;55.594;12.986;2022-09-27T01:18:57;11.50;99.90
14723;DHT22;7452;55.594;12.986;2022-09-27T01:21:49;11.50;99.90
14723;DHT22;7452;55.594;12.986;2022-09-27T01:30:26;11.60;99.90
14723;DHT22;7452;55.594;12.986;2022-09-27T01:33:03;11.70;99.90
14723;DHT22;7452;55.594;12.986;2022-09-27T01:35:36;11.70;99.90
14723;DHT22;7452;55.594;12.986;2022-09-27T01:38:11;11.70;99.90
14723;DHT22;7452;55.594;12.986;2022-09-27T01:40:47;11.80;99.90
14723;DHT22;7452;55.594;12.986;2022-09-27T01:43:19;11.90;99.90
14723;DHT22;7452;55.594;12.986;2022-09-27T01:45:53;11.90;99.90
14723;DHT22;7452;55.594;12.986;2022-09-27T01:48:22;12.00;99.90
14723;DHT22;7452;55.594;12.986;2022-09-27T01:50:54;12.00;99.90
14723;DHT22;7452;55.594;12.986;2022-09-27T01:53:26;12.00;99.90
14723;DHT22;7452;55.594;12.986;2022-09-27T01:55:56;12.10;99.90
14723;DHT22;7452;55.594;12.986;2022-09-27T01:58:29;12.10;99.90
14723;DHT22;7452;55.594;12.986;2022-09-27T02:01:00;12.20;99.90
14723;DHT22;7452;55.594;12.986;2022-09-27T02:03:31;12.20;99.90
14723;DHT22;7452;55.594;12.986;2022-09-27T02:06:02;12.20;99.90
14723;DHT22;7452;55.594;12.986;2022-09-27T02:08:36;12.20;99.90
14723;DHT22;7452;55.594;12.986;2022-09-27T02:11:09;12.20;99.90
14723;DHT22;7452;55.594;12.986;2022-09-27T02:13:41;12.20;99.90
14723;DHT22;7452;55.594;12.986;2022-09-27T02:16:19;12.20;99.90
14723;DHT22;7452;55.594;12.986;2022-09-27T02:18:52;12.20;99.90
14723;DHT22;7452;55.594;12.986;2022-09-27T02:21:27;12.20;99.90
14723;DHT22;7452;55.594;12.986;2022-09-27T02:23:58;12.20;99.90
14723;DHT22;7452;55.594;12.986;2022-09-27T02:26:32;12.20;99.90
14723;DHT22;7452;55.594;12.986;2022-09-27T02:29:07;12.20;99.90
14723;DHT22;7452;55.594;12.986;2022-09-27T02:31:38;12.20;99.90
14723;DHT22;7452;55.594;12.986;2022-09-27T02:34:07;12.10;99.90
14723;DHT22;7452;55.594;12.986;2022-09-27T02:36:35;12.10;99.90
14723;DHT22;7452;55.594;12.986;2022-09-27T02:39:03;12.10;99.90
14723;DHT22;7452;55.594;12.986;2022-09-27T02:41:31;12.10;99.90
14723;DHT22;7452;55.594;12.986;2022-09-27T02:44:00;12.10;99.90
14723;DHT22;7452;55.594;12.986;2022-09-27T02:46:51;12.10;99.90
14723;DHT22;7452;55.594;12.986;2022-09-27T02:49:31;12.10;99.90
14723;DHT22;7452;55.594;12.986;2022-09-27T02:52:12;12.00;99.90
14723;DHT22;7452;55.594;12.986;2022-09-27T02:54:47;12.00;99.90
14723;DHT22;7452;55.594;12.986;2022-09-27T02:57:25;12.00;99.90
14723;DHT22;7452;55.594;12.986;2022-09-27T03:00:00;12.10;99.90
14723;DHT22;7452;55.594;12.986;2022-09-27T03:02:35;12.10;99.90
14723;DHT22;7452;55.594;12.986;2022-09-27T03:05:10;12.10;99.90
14723;DHT22;7452;55.594;12.986;2022-09-27T03:07:38;12.10;99.90
14723;DHT22;7452;55.594;12.986;2022-09-27T03:10:06;12.10;99.90
14723;DHT22;7452;55.594;12.986;2022-09-27T03:12:33;12.10;99.90
14723;DHT22;7452;55.594;12.986;2022-09-27T03:15:01;12.10;99.90
14723;DHT22;7452;55.594;12.986;2022-09-27T03:17:28;12.10;99.90
14723;DHT22;7452;55.594;12.986;2022-09-27T03:19:57;12.10;99.90
14723;DHT22;7452;55.594;12.986;2022-09-27T03:22:24;12.10;99.90
14723;DHT22;7452;55.594;12.986;2022-09-27T03:24:51;12.10;99.90
14723;DHT22;7452;55.594;12.986;2022-09-27T03:27:18;12.10;99.90
14723;DHT22;7452;55.594;12.986;2022-09-27T03:29:46;12.10;99.90
14723;DHT22;7452;55.594;12.986;2022-09-27T03:32:14;12.10;99.90
14723;DHT22;7452;55.594;12.986;2022-09-27T03:34:41;12.10;99.90
14723;DHT22;7452;55.594;12.986;2022-09-27T03:37:09;12.00;99.90
14723;DHT22;7452;55.594;12.986;2022-09-27T03:39:36;12.10;99.90
14723;DHT22;7452;55.594;12.986;2022-09-27T03:42:04;12.10;99.90
14723;DHT22;7452;55.594;12.986;2022-09-27T03:44:32;12.00;99.90
14723;DHT22;7452;55.594;12.986;2022-09-27T03:46:59;12.00;99.90
14723;DHT22;7452;55.594;12.986;2022-09-27T03:49:27;12.00;99.90
14723;DHT22;7452;55.594;12.986;2022-09-27T03:51:54;12.10;99.90
14723;DHT22;7452;55.594;12.986;2022-09-27T03:54:23;12.10;99.90
14723;DHT22;7452;55.594;12.986;2022-09-27T03:56:50;12.00;99.90
14723;DHT22;7452;55.594;12.986;2022-09-27T03:59:17;12.10;99.90
14723;DHT22;7452;55.594;12.986;2022-09-27T04:01:44;12.00;99.90
14723;DHT22;7452;55.594;12.986;2022-09-27T04:04:12;12.00;99.90
14723;DHT22;7452;55.594;12.986;2022-09-27T04:06:39;12.00;99.90
14723;DHT22;7452;55.594;12.986;2022-09-27T04:09:06;12.00;99.90
14723;DHT22;7452;55.594;12.986;2022-09-27T04:11:35;12.00;99.90
14723;DHT22;7452;55.594;12.986;2022-09-27T04:14:02;12.00;99.90
14723;DHT22;7452;55.594;12.986;2022-09-27T04:16:30;12.00;99.90
14723;DHT22;7452;55.594;12.986;2022-09-27T04:18:58;11.90;99.90
14723;DHT22;7452;55.594;12.986;2022-09-27T04:21:27;11.90;99.90
14723;DHT22;7452;55.594;12.986;2022-09-27T04:23:54;11.90;99.90
14723;DHT22;7452;55.594;12.986;2022-09-27T04:26:21;11.90;99.90
14723;DHT22;7452;55.594;12.986;2022-09-27T04:28:50;11.80;99.90
14723;DHT22;7452;55.594;12.986;2022-09-27T04:31:17;11.80;99.90
14723;DHT22;7452;55.594;12.986;2022-09-27T04:33:45;11.80;99.90
14723;DHT22;7452;55.594;12.986;2022-09-27T04:36:16;11.80;99.90
14723;DHT22;7452;55.594;12.986;2022-09-27T04:38:51;11.80;99.90
14723;DHT22;7452;55.594;12.986;2022-09-27T04:41:18;11.80;99.90
14723;DHT22;7452;55.594;12.986;2022-09-27T04:43:47;11.80;99.90
14723;DHT22;7452;55.594;12.986;2022-09-27T04:46:15;11.90;99.90
14723;DHT22;7452;55.594;12.986;2022-09-27T04:48:42;11.90;99.90
14723;DHT22;7452;55.594;12.986;2022-09-27T04:51:10;11.90;99.90
14723;DHT22;7452;55.594;12.986;2022-09-27T04:53:37;11.90;99.90
14723;DHT22;7452;55.594;12.986;2022-09-27T04:56:05;11.90;99.90
14723;DHT22;7452;55.594;12.986;2022-09-27T04:58:33;11.90;99.90
14723;DHT22;7452;55.594;12.986;2022-09-27T05:01:00;11.90;99.90
14723;DHT22;7452;55.594;12.986;2022-09-27T05:03:30;12.00;99.90
14723;DHT22;7452;55.594;12.986;2022-09-27T05:05:57;12.00;99.90
14723;DHT22;7452;55.594;12.986;2022-09-27T05:08:25;12.00;99.90
14723;DHT22;7452;55.594;12.986;2022-09-27T05:10:53;12.00;99.90
14723;DHT22;7452;55.594;12.986;2022-09-27T05:13:20;12.00;99.90
14723;DHT22;7452;55.594;12.986;2022-09-27T05:15:47;12.00;99.90
14723;DHT22;7452;55.594;12.986;2022-09-27T05:18:14;12.00;99.90
14723;DHT22;7452;55.594;12.986;2022-09-27T05:20:44;12.00;99.90
14723;DHT22;7452;55.594;12.986;2022-09-27T05:23:11;12.00;99.90
14723;DHT22;7452;55.594;12.986;2022-09-27T05:25:38;12.00;99.90
14723;DHT22;7452;55.594;12.986;2022-09-27T05:28:07;12.10;99.90
14723;DHT22;7452;55.594;12.986;2022-09-27T05:30:34;12.10;99.90
14723;DHT22;7452;55.594;12.986;2022-09-27T05:33:02;12.10;99.90
14723;DHT22;7452;55.594;12.986;2022-09-27T05:35:29;12.10;99.90
14723;DHT22;7452;55.594;12.986;2022-09-27T05:38:00;12.10;99.90
14723;DHT22;7452;55.594;12.986;2022-09-27T05:40:27;12.10;99.90
14723;DHT22;7452;55.594;12.986;2022-09-27T05:42:55;12.10;99.90
14723;DHT22;7452;55.594;12.986;2022-09-27T05:45:23;12.10;99.90
14723;DHT22;7452;55.594;12.986;2022-09-27T05:47:52;12.10;99.90
14723;DHT22;7452;55.594;12.986;2022-09-27T05:50:19;12.20;99.90
14723;DHT22;7452;55.594;12.986;2022-09-27T05:52:47;12.20;99.90
14723;DHT22;7452;55.594;12.986;2022-09-27T05:55:15;12.20;99.90
14723;DHT22;7452;55.594;12.986;2022-09-27T05:57:52;12.20;99.90
14723;DHT22;7452;55.594;12.986;2022-09-27T06:00:19;12.20;99.90
14723;DHT22;7452;55.594;12.986;2022-09-27T06:02:52;12.30;99.90
14723;DHT22;7452;55.594;12.986;2022-09-27T06:05:19;12.30;99.90
14723;DHT22;7452;55.594;12.986;2022-09-27T06:07:46;12.30;99.90
14723;DHT22;7452;55.594;12.986;2022-09-27T06:10:15;12.30;99.90
14723;DHT22;7452;55.594;12.986;2022-09-27T06:12:43;12.40;99.90
14723;DHT22;7452;55.594;12.986;2022-09-27T06:15:10;12.40;99.90
14723;DHT22;7452;55.594;12.986;2022-09-27T06:17:37;12.40;99.90
14723;DHT22;7452;55.594;12.986;2022-09-27T06:20:05;12.40;99.90
14723;DHT22;7452;55.594;12.986;2022-09-27T06:22:33;12.50;99.90
14723;DHT22;7452;55.594;12.986;2022-09-27T06:25:00;12.50;99.90
14723;DHT22;7452;55.594;12.986;2022-09-27T06:27:30;12.60;99.90
14723;DHT22;7452;55.594;12.986;2022-09-27T06:29:56;12.60;99.90
14723;DHT22;7452;55.594;12.986;2022-09-27T06:32:23;12.60;99.90
14723;DHT22;7452;55.594;12.986;2022-09-27T06:34:51;12.70;99.90
14723;DHT22;7452;55.594;12.986;2022-09-27T06:37:18;12.70;99.90
14723;DHT22;7452;55.594;12.986;2022-09-27T06:39:45;12.70;99.90
14723;DHT22;7452;55.594;12.986;2022-09-27T06:42:13;12.70;99.90
14723;DHT22;7452;55.594;12.986;2022-09-27T06:44:44;12.80;99.90
14723;DHT22;7452;55.594;12.986;2022-09-27T06:47:12;12.80;99.90
14723;DHT22;7452;55.594;12.986;2022-09-27T06:49:39;12.80;99.90
14723;DHT22;7452;55.594;12.986;2022-09-27T06:52:06;12.90;99.90
14723;DHT22;7452;55.594;12.986;2022-09-27T06:54:34;12.90;99.90
14723;DHT22;7452;55.594;12.986;2022-09-27T06:57:01;12.90;99.90
14723;DHT22;7452;55.594;12.986;2022-09-27T06:59:29;13.00;99.90
14723;DHT22;7452;55.594;12.986;2022-09-27T07:02:15;12.90;99.90
14723;DHT22;7452;55.594;12.986;2022-09-27T07:04:41;12.90;99.90
14723;DHT22;7452;55.594;12.986;2022-09-27T07:07:08;12.90;99.90
14723;DHT22;7452;55.594;12.986;2022-09-27T07:09:36;12.80;99.90
14723;DHT22;7452;55.594;12.986;2022-09-27T07:12:05;12.80;99.90
14723;DHT22;7452;55.594;12.986;2022-09-27T07:14:32;12.80;99.90
14723;DHT22;7452;55.594;12.986;2022-09-27T07:16:59;12.70;99.90
14723;DHT22;7452;55.594;12.986;2022-09-27T07:19:28;12.70;99.90
14723;DHT22;7452;55.594;12.986;2022-09-27T07:21:55;12.70;99.90
14723;DHT22;7452;55.594;12.986;2022-09-27T07:24:22;12.70;99.90
14723;DHT22;7452;55.594;12.986;2022-09-27T07:26:49;12.70;99.90
14723;DHT22;7452;55.594;12.986;2022-09-27T07:29:16;12.70;99.90
14723;DHT22;7452;55.594;12.986;2022-09-27T07:31:43;12.70;99.90
14723;DHT22;7452;55.594;12.986;2022-09-27T07:34:10;12.70;99.90
14723;DHT22;7452;55.594;12.986;2022-09-27T07:36:39;12.70;99.90
14723;DHT22;7452;55.594;12.986;2022-09-27T07:39:06;12.60;99.90
14723;DHT22;7452;55.594;12.986;2022-09-27T07:41:33;12.60;99.90
14723;DHT22;7452;55.594;12.986;2022-09-27T07:44:00;12.60;99.90
14723;DHT22;7452;55.594;12.986;2022-09-27T07:46:29;12.50;99.90
14723;DHT22;7452;55.594;12.986;2022-09-27T07:48:56;12.40;99.90
14723;DHT22;7452;55.594;12.986;2022-09-27T07:51:23;12.40;99.90
14723;DHT22;7452;55.594;12.986;2022-09-27T07:53:52;12.40;99.90
14723;DHT22;7452;55.594;12.986;2022-09-27T07:56:19;12.40;99.90
14723;DHT22;7452;55.594;12.986;2022-09-27T07:58:46;12.50;99.90
14723;DHT22;7452;55.594;12.986;2022-09-27T08:01:13;12.40;99.90
14723;DHT22;7452;55.594;12.986;2022-09-27T08:03:40;12.30;99.90
14723;DHT22;7452;55.594;12.986;2022-09-27T08:06:08;12.30;99.90
14723;DHT22;7452;55.594;12.986;2022-09-27T08:08:35;12.30;99.90
14723;DHT22;7452;55.594;12.986;2022-09-27T08:11:11;12.40;99.90
14723;DHT22;7452;55.594;12.986;2022-09-27T08:13:40;12.40;99.90
14723;DHT22;7452;55.594;12.986;2022-09-27T08:16:07;12.40;99.90
14723;DHT22;7452;55.594;12.986;2022-09-27T08:18:34;12.40;99.90
14723;DHT22;7452;55.594;12.986;2022-09-27T08:21:01;12.50;99.90
14723;DHT22;7452;55.594;12.986;2022-09-27T08:23:29;12.50;99.90
14723;DHT22;7452;55.594;12.986;2022-09-27T08:25:56;12.60;99.90
14723;DHT22;7452;55.594;12.986;2022-09-27T08:28:26;12.70;99.90
14723;DHT22;7452;55.594;12.986;2022-09-27T08:30:53;12.60;99.90
14723;DHT22;7452;55.594;12.986;2022-09-27T08:33:20;12.70;99.90
14723;DHT22;7452;55.594;12.986;2022-09-27T08:35:50;12.70;99.90
14723;DHT22;7452;55.594;12.986;2022-09-27T08:38:17;12.80;99.90
14723;DHT22;7452;55.594;12.986;2022-09-27T08:40:50;12.80;99.90
14723;DHT22;7452;55.594;12.986;2022-09-27T08:43:26;12.70;99.90
14723;DHT22;7452;55.594;12.986;2022-09-27T08:46:11;12.80;99.90
14723;DHT22;7452;55.594;12.986;2022-09-27T08:48:43;12.80;99.90
14723;DHT22;7452;55.594;12.986;2022-09-27T08:51:21;12.80;99.90
14723;DHT22;7452;55.594;12.986;2022-09-27T08:53:52;12.80;99.90
14723;DHT22;7452;55.594;12.986;2022-09-27T08:56:21;12.80;99.90
14723;DHT22;7452;55.594;12.986;2022-09-27T08:58:51;12.60;99.90
14723;DHT22;7452;55.594;12.986;2022-09-27T09:01:21;12.80;99.90
14723;DHT22;7452;55.594;12.986;2022-09-27T09:03:51;12.80;99.90
14723;DHT22;7452;55.594;12.986;2022-09-27T09:06:22;12.80;99.90
14723;DHT22;7452;55.594;12.986;2022-09-27T09:08:59;12.80;99.90
14723;DHT22;7452;55.594;12.986;2022-09-27T09:11:37;12.80;99.90
14723;DHT22;7452;55.594;12.986;2022-09-27T09:17:33;12.80;99.90
14723;DHT22;7452;55.594;12.986;2022-09-27T09:20:15;12.70;99.90
14723;DHT22;7452;55.594;12.986;2022-09-27T09:22:53;12.70;99.90
14723;DHT22;7452;55.594;12.986;2022-09-27T09:25:27;12.70;99.90
14723;DHT22;7452;55.594;12.986;2022-09-27T09:28:10;12.70;99.90
14723;DHT22;7452;55.594;12.986;2022-09-27T09:30:48;12.70;99.90
14723;DHT22;7452;55.594;12.986;2022-09-27T09:33:25;12.50;99.90
14723;DHT22;7452;55.594;12.986;2022-09-27T09:35:57;12.60;99.90
14723;DHT22;7452;55.594;12.986;2022-09-27T09:38:33;12.50;99.90
14723;DHT22;7452;55.594;12.986;2022-09-27T09:41:06;12.40;99.90
14723;DHT22;7452;55.594;12.986;2022-09-27T09:43:39;12.40;99.90
14723;DHT22;7452;55.594;12.986;2022-09-27T09:46:12;12.40;99.90
14723;DHT22;7452;55.594;12.986;2022-09-27T09:48:46;12.50;99.90
14723;DHT22;7452;55.594;12.986;2022-09-27T09:51:18;12.70;99.90
14723;DHT22;7452;55.594;12.986;2022-09-27T09:53:51;12.70;99.90
14723;DHT22;7452;55.594;12.986;2022-09-27T09:56:22;12.70;99.90
14723;DHT22;7452;55.594;12.986;2022-09-27T09:58:53;12.80;99.90
14723;DHT22;7452;55.594;12.986;2022-09-27T10:01:24;12.70;99.90
14723;DHT22;7452;55.594;12.986;2022-09-27T10:03:54;12.80;99.90
14723;DHT22;7452;55.594;12.986;2022-09-27T10:06:23;12.80;99.90
14723;DHT22;7452;55.594;12.986;2022-09-27T10:08:50;12.70;99.90
14723;DHT22;7452;55.594;12.986;2022-09-27T10:11:23;12.70;99.90
14723;DHT22;7452;55.594;12.986;2022-09-27T10:13:51;12.70;99.90
14723;DHT22;7452;55.594;12.986;2022-09-27T10:16:20;12.70;99.90
14723;DHT22;7452;55.594;12.986;2022-09-27T10:18:49;12.70;99.90
14723;DHT22;7452;55.594;12.986;2022-09-27T10:21:22;12.80;99.90
14723;DHT22;7452;55.594;12.986;2022-09-27T10:24:09;12.90;99.90
14723;DHT22;7452;55.594;12.986;2022-09-27T10:26:37;12.80;99.90
14723;DHT22;7452;55.594;12.986;2022-09-27T10:29:29;12.80;99.90
14723;DHT22;7452;55.594;12.986;2022-09-27T10:31:59;12.90;99.90
14723;DHT22;7452;55.594;12.986;2022-09-27T10:34:30;13.10;99.90
14723;DHT22;7452;55.594;12.986;2022-09-27T10:37:05;13.40;99.90
14723;DHT22;7452;55.594;12.986;2022-09-27T10:39:33;13.50;99.90
14723;DHT22;7452;55.594;12.986;2022-09-27T10:42:01;13.80;99.90
14723;DHT22;7452;55.594;12.986;2022-09-27T10:44:30;13.90;99.90
14723;DHT22;7452;55.594;12.986;2022-09-27T10:46:59;13.80;99.90
14723;DHT22;7452;55.594;12.986;2022-09-27T10:49:29;13.60;99.90
14723;DHT22;7452;55.594;12.986;2022-09-27T10:52:00;13.50;99.90
14723;DHT22;7452;55.594;12.986;2022-09-27T10:54:31;13.40;99.90
14723;DHT22;7452;55.594;12.986;2022-09-27T10:57:01;13.30;99.90
14723;DHT22;7452;55.594;12.986;2022-09-27T10:59:32;13.20;99.90
14723;DHT22;7452;55.594;12.986;2022-09-27T11:02:00;13.20;99.90
14723;DHT22;7452;55.594;12.986;2022-09-27T11:04:30;13.20;99.90
14723;DHT22;7452;55.594;12.986;2022-09-27T11:07:13;13.50;99.90
14723;DHT22;7452;55.594;12.986;2022-09-27T11:09:47;13.50;99.90
14723;DHT22;7452;55.594;12.986;2022-09-27T11:12:15;13.50;99.90
14723;DHT22;7452;55.594;12.986;2022-09-27T11:14:50;13.40;99.90
14723;DHT22;7452;55.594;12.986;2022-09-27T11:17:25;13.30;99.90
14723;DHT22;7452;55.594;12.986;2022-09-27T11:20:13;13.10;99.90
14723;DHT22;7452;55.594;12.986;2022-09-27T11:25:49;12.80;99.90
14723;DHT22;7452;55.594;12.986;2022-09-27T11:28:26;12.60;99.90
14723;DHT22;7452;55.594;12.986;2022-09-27T11:31:09;12.50;99.90
14723;DHT22;7452;55.594;12.986;2022-09-27T11:33:53;12.40;99.90
14723;DHT22;7452;55.594;12.986;2022-09-27T11:36:33;12.40;99.90
14723;DHT22;7452;55.594;12.986;2022-09-27T11:39:10;12.40;99.90
14723;DHT22;7452;55.594;12.986;2022-09-27T11:41:57;12.30;99.90
14723;DHT22;7452;55.594;12.986;2022-09-27T11:44:43;12.20;99.90
14723;DHT22;7452;55.594;12.986;2022-09-27T11:47:19;12.20;99.90
14723;DHT22;7452;55.594;12.986;2022-09-27T11:50:18;12.20;99.90
14723;DHT22;7452;55.594;12.986;2022-09-27T11:52:58;12.20;99.90
14723;DHT22;7452;55.594;12.986;2022-09-27T11:55:36;12.20;99.90
14723;DHT22;7452;55.594;12.986;2022-09-27T11:58:12;12.10;99.90
14723;DHT22;7452;55.594;12.986;2022-09-27T12:00:52;12.20;99.90
14723;DHT22;7452;55.594;12.986;2022-09-27T12:06:21;12.30;99.90
14723;DHT22;7452;55.594;12.986;2022-09-27T12:09:03;12.30;99.90
14723;DHT22;7452;55.594;12.986;2022-09-27T12:11:36;12.40;99.90
14723;DHT22;7452;55.594;12.986;2022-09-27T12:14:10;12.40;99.90
14723;DHT22;7452;55.594;12.986;2022-09-27T12:16:40;12.50;99.90
14723;DHT22;7452;55.594;12.986;2022-09-27T12:19:16;12.60;99.90
14723;DHT22;7452;55.594;12.986;2022-09-27T12:21:44;12.70;99.90
14723;DHT22;7452;55.594;12.986;2022-09-27T12:24:18;12.70;99.90
14723;DHT22;7452;55.594;12.986;2022-09-27T12:26:49;12.70;99.90
14723;DHT22;7452;55.594;12.986;2022-09-27T12:29:21;12.80;99.90
14723;DHT22;7452;55.594;12.986;2022-09-27T12:31:55;12.80;99.90
14723;DHT22;7452;55.594;12.986;2022-09-27T12:34:31;12.90;99.90
14723;DHT22;7452;55.594;12.986;2022-09-27T12:37:15;12.90;99.90
14723;DHT22;7452;55.594;12.986;2022-09-27T12:39:49;13.00;99.90
14723;DHT22;7452;55.594;12.986;2022-09-27T12:42:21;13.10;99.90
14723;DHT22;7452;55.594;12.986;2022-09-27T12:44:51;12.90;99.90
14723;DHT22;7452;55.594;12.986;2022-09-27T12:47:28;12.80;99.90
14723;DHT22;7452;55.594;12.986;2022-09-27T12:50:03;12.80;99.90
14723;DHT22;7452;55.594;12.986;2022-09-27T12:52:37;12.90;99.90
14723;DHT22;7452;55.594;12.986;2022-09-27T12:55:21;13.10;99.90
14723;DHT22;7452;55.594;12.986;2022-09-27T12:58:16;13.20;99.90
14723;DHT22;7452;55.594;12.986;2022-09-27T13:00:55;13.10;99.90
14723;DHT22;7452;55.594;12.986;2022-09-27T13:03:42;13.00;99.90
14723;DHT22;7452;55.594;12.986;2022-09-27T13:06:29;13.00;99.90
14723;DHT22;7452;55.594;12.986;2022-09-27T13:09:22;12.90;99.90
14723;DHT22;7452;55.594;12.986;2022-09-27T13:12:00;12.70;99.90
14723;DHT22;7452;55.594;12.986;2022-09-27T13:14:31;12.60;99.90
14723;DHT22;7452;55.594;12.986;2022-09-27T13:17:03;12.50;99.90
14723;DHT22;7452;55.594;12.986;2022-09-27T13:19:40;12.40;99.90
14723;DHT22;7452;55.594;12.986;2022-09-27T13:22:09;12.50;99.90
14723;DHT22;7452;55.594;12.986;2022-09-27T13:24:44;12.50;99.90
14723;DHT22;7452;55.594;12.986;2022-09-27T13:27:37;12.60;99.90
14723;DHT22;7452;55.594;12.986;2022-09-27T13:33:32;12.80;99.90
14723;DHT22;7452;55.594;12.986;2022-09-27T13:36:29;12.90;99.90
14723;DHT22;7452;55.594;12.986;2022-09-27T13:39:03;13.00;99.90
14723;DHT22;7452;55.594;12.986;2022-09-27T13:41:39;13.10;99.90
14723;DHT22;7452;55.594;12.986;2022-09-27T13:44:12;13.00;99.90
14723;DHT22;7452;55.594;12.986;2022-09-27T13:46:46;13.10;99.90
14723;DHT22;7452;55.594;12.986;2022-09-27T13:49:22;13.00;99.90
14723;DHT22;7452;55.594;12.986;2022-09-27T13:51:55;13.00;99.90
14723;DHT22;7452;55.594;12.986;2022-09-27T13:54:39;12.90;99.90
14723;DHT22;7452;55.594;12.986;2022-09-27T13:57:42;12.80;99.90
14723;DHT22;7452;55.594;12.986;2022-09-27T14:00:14;12.70;99.90
14723;DHT22;7452;55.594;12.986;2022-09-27T14:02:59;12.60;99.90
14723;DHT22;7452;55.594;12.986;2022-09-27T14:05:31;12.50;99.90
14723;DHT22;7452;55.594;12.986;2022-09-27T14:08:01;12.50;99.90
14723;DHT22;7452;55.594;12.986;2022-09-27T14:10:30;12.50;99.90
14723;DHT22;7452;55.594;12.986;2022-09-27T14:12:59;12.50;99.90
14723;DHT22;7452;55.594;12.986;2022-09-27T14:15:28;12.60;99.90
14723;DHT22;7452;55.594;12.986;2022-09-27T14:17:56;12.60;99.90
14723;DHT22;7452;55.594;12.986;2022-09-27T14:20:36;12.60;99.90
14723;DHT22;7452;55.594;12.986;2022-09-27T14:23:05;12.60;99.90
14723;DHT22;7452;55.594;12.986;2022-09-27T14:25:32;12.70;99.90
14723;DHT22;7452;55.594;12.986;2022-09-27T14:27:59;12.60;99.90
14723;DHT22;7452;55.594;12.986;2022-09-27T14:30:28;12.60;99.90
14723;DHT22;7452;55.594;12.986;2022-09-27T14:32:56;12.50;99.90
14723;DHT22;7452;55.594;12.986;2022-09-27T14:35:28;12.40;99.90
14723;DHT22;7452;55.594;12.986;2022-09-27T14:38:29;12.40;99.90
14723;DHT22;7452;55.594;12.986;2022-09-27T14:40:58;12.40;99.90
14723;DHT22;7452;55.594;12.986;2022-09-27T14:43:27;12.40;99.90
14723;DHT22;7452;55.594;12.986;2022-09-27T14:45:58;12.40;99.90
14723;DHT22;7452;55.594;12.986;2022-09-27T14:48:27;12.30;99.90
14723;DHT22;7452;55.594;12.986;2022-09-27T14:50:56;12.30;99.90
14723;DHT22;7452;55.594;12.986;2022-09-27T14:53:29;12.20;99.90
14723;DHT22;7452;55.594;12.986;2022-09-27T14:55:57;12.10;99.90
14723;DHT22;7452;55.594;12.986;2022-09-27T14:58:24;12.10;99.90
14723;DHT22;7452;55.594;12.986;2022-09-27T15:00:53;12.00;99.90
14723;DHT22;7452;55.594;12.986;2022-09-27T15:03:23;12.00;99.90
14723;DHT22;7452;55.594;12.986;2022-09-27T15:05:54;11.90;99.90
14723;DHT22;7452;55.594;12.986;2022-09-27T15:08:28;11.80;99.90
14723;DHT22;7452;55.594;12.986;2022-09-27T15:10:58;11.80;99.90
14723;DHT22;7452;55.594;12.986;2022-09-27T15:13:25;11.70;99.90
14723;DHT22;7452;55.594;12.986;2022-09-27T15:15:54;11.70;99.90
14723;DHT22;7452;55.594;12.986;2022-09-27T15:18:33;11.60;99.90
14723;DHT22;7452;55.594;12.986;2022-09-27T15:21:05;11.60;99.90
14723;DHT22;7452;55.594;12.986;2022-09-27T15:23:37;11.60;99.90
14723;DHT22;7452;55.594;12.986;2022-09-27T15:26:14;11.60;99.90
14723;DHT22;7452;55.594;12.986;2022-09-27T15:28:43;11.60;99.90
14723;DHT22;7452;55.594;12.986;2022-09-27T15:31:11;11.60;99.90
14723;DHT22;7452;55.594;12.986;2022-09-27T15:33:39;11.60;99.90
14723;DHT22;7452;55.594;12.986;2022-09-27T15:36:08;11.60;99.90
14723;DHT22;7452;55.594;12.986;2022-09-27T15:38:38;11.60;99.90
14723;DHT22;7452;55.594;12.986;2022-09-27T15:41:13;11.60;99.90
14723;DHT22;7452;55.594;12.986;2022-09-27T15:43:44;11.60;99.90
14723;DHT22;7452;55.594;12.986;2022-09-27T15:46:33;11.60;99.90
14723;DHT22;7452;55.594;12.986;2022-09-27T15:49:20;11.60;99.90
14723;DHT22;7452;55.594;12.986;2022-09-27T15:51:49;11.70;99.90
14723;DHT22;7452;55.594;12.986;2022-09-27T15:54:19;11.70;99.90
14723;DHT22;7452;55.594;12.986;2022-09-27T15:56:47;11.70;99.90
14723;DHT22;7452;55.594;12.986;2022-09-27T15:59:20;11.70;99.90
14723;DHT22;7452;55.594;12.986;2022-09-27T16:01:47;11.70;99.90
14723;DHT22;7452;55.594;12.986;2022-09-27T16:04:17;11.70;99.90
14723;DHT22;7452;55.594;12.986;2022-09-27T16:06:44;11.70;99.90
14723;DHT22;7452;55.594;12.986;2022-09-27T16:09:16;11.80;99.90
14723;DHT22;7452;55.594;12.986;2022-09-27T16:11:45;11.80;99.90
14723;DHT22;7452;55.594;12.986;2022-09-27T16:14:13;11.80;99.90
14723;DHT22;7452;55.594;12.986;2022-09-27T16:16:43;11.80;99.90